Time;durP1;ratioP1;P1;durP2;ratioP2;P2;SDS_P1;SDS_P2;PMS_P1;PMS_P2;Temp;Humidity;BMP_temperature;BMP_pressure;BME280_temperature;BME280_humidity;BME280_pressure;Samples;Min_cycle;Max_cycle;Signal;HPM_P1;HPM_P2
2023/05/18 00:00:43;;;;;;;9.00;1.23;;;7.20;99.90;;;;;;4989694;28;20124;-74
2023/05/18 00:03:10;;;;;;;6.15;0.95;;;7.20;99.90;;;;;;5001702;28;20051;-74
2023/05/18 00:05:36;;;;;;;9.38;0.82;;;7.10;99.90;;;;;;5003997;28;20408;-74
2023/05/18 00:08:03;;;;;;;7.57;1.27;;;7.10;99.90;;;;;;5003743;28;20418;-73
2023/05/18 00:10:29;;;;;;;6.72;1.05;;;7.10;99.90;;;;;;5003977;28;20033;-73
2023/05/18 00:12:55;;;;;;;3.92;0.90;;;7.00;99.90;;;;;;5013454;28;20040;-73
2023/05/18 00:15:21;;;;;;;7.20;1.25;;;7.00;99.90;;;;;;5010968;28;20526;-74
2023/05/18 00:17:49;;;;;;;6.72;1.05;;;7.00;99.90;;;;;;4979256;28;20039;-74
2023/05/18 00:20:17;;;;;;;7.13;1.15;;;7.00;99.90;;;;;;4986358;28;20971;-74
2023/05/18 00:22:43;;;;;;;10.15;1.30;;;6.90;99.90;;;;;;5013664;28;20031;-74
2023/05/18 00:25:10;;;;;;;6.47;1.10;;;6.90;99.90;;;;;;5021627;28;20047;-74
2023/05/18 00:27:36;;;;;;;7.72;1.00;;;6.90;99.90;;;;;;5020007;28;20388;-74
2023/05/18 00:30:05;;;;;;;7.15;1.08;;;6.90;99.90;;;;;;4995514;28;20457;-74
2023/05/18 00:32:31;;;;;;;6.45;0.80;;;6.80;99.90;;;;;;4992649;28;20227;-74
2023/05/18 00:34:57;;;;;;;5.00;0.95;;;6.80;99.90;;;;;;4991718;28;20052;-74
2023/05/18 00:37:26;;;;;;;7.72;0.82;;;6.80;99.90;;;;;;5011985;28;20619;-74
2023/05/18 00:39:53;;;;;;;4.80;0.88;;;6.80;99.90;;;;;;4990118;28;20418;-74
2023/05/18 00:42:19;;;;;;;4.82;0.95;;;6.80;99.90;;;;;;4990401;28;20044;-74
2023/05/18 00:44:46;;;;;;;7.15;1.60;;;6.80;99.90;;;;;;5018762;28;20040;-74
2023/05/18 00:47:12;;;;;;;7.10;1.20;;;6.70;99.90;;;;;;5021979;28;20546;-75
2023/05/18 00:49:40;;;;;;;9.55;1.55;;;6.70;99.90;;;;;;5014467;28;20040;-74
2023/05/18 00:52:06;;;;;;;5.60;1.00;;;6.70;99.90;;;;;;5008417;28;20067;-73
2023/05/18 00:54:34;;;;;;;4.57;0.77;;;6.70;99.90;;;;;;4996395;28;20037;-74
2023/05/18 00:57:00;;;;;;;9.10;1.15;;;6.70;99.90;;;;;;5013402;28;20037;-74
2023/05/18 00:59:28;;;;;;;8.07;1.42;;;6.70;99.90;;;;;;5006775;28;20030;-74
2023/05/18 01:01:55;;;;;;;7.15;0.88;;;6.60;99.90;;;;;;4990611;28;20503;-74
2023/05/18 01:04:23;;;;;;;8.77;1.48;;;6.70;99.90;;;;;;5020861;28;20036;-74
2023/05/18 01:06:55;;;;;;;5.72;1.00;;;6.70;99.90;;;;;;5001207;28;20051;-74
2023/05/18 01:09:23;;;;;;;5.28;1.00;;;6.60;99.90;;;;;;5008248;28;20067;-74
2023/05/18 01:12:02;;;;;;;4.03;1.05;;;6.60;99.90;;;;;;4974147;28;20041;-75
2023/05/18 01:14:49;;;;;;;5.78;1.58;;;6.60;99.90;;;;;;5009609;28;20041;-75
2023/05/18 01:17:26;;;;;;;6.07;1.13;;;6.60;99.90;;;;;;4993835;28;20037;-74
2023/05/18 01:20:18;;;;;;;6.35;1.20;;;6.60;99.90;;;;;;5007556;28;20028;-74
2023/05/18 01:23:19;;;;;;;8.05;1.13;;;6.60;99.90;;;;;;5010160;28;20044;-74
2023/05/18 01:25:54;;;;;;;5.30;0.95;;;6.50;99.90;;;;;;5003053;28;20194;-75
2023/05/18 01:28:29;;;;;;;10.68;1.30;;;6.50;99.90;;;;;;5019538;28;20037;-75
2023/05/18 01:30:57;;;;;;;5.93;1.25;;;6.50;99.90;;;;;;5004578;28;20041;-75
2023/05/18 01:33:24;;;;;;;4.05;1.15;;;6.50;99.90;;;;;;5010223;28;20123;-75
2023/05/18 01:35:51;;;;;;;7.55;1.67;;;6.40;99.90;;;;;;4993347;28;20567;-74
2023/05/18 01:38:21;;;;;;;6.25;1.50;;;6.40;99.90;;;;;;5025762;28;20484;-75
2023/05/18 01:41:12;;;;;;;4.65;0.90;;;6.40;99.90;;;;;;4984610;28;20040;-75
2023/05/18 01:43:51;;;;;;;8.80;1.33;;;6.40;99.90;;;;;;5006545;28;20053;-75
2023/05/18 01:46:53;;;;;;;7.20;1.70;;;6.40;99.90;;;;;;5020187;28;20641;-75
2023/05/18 01:49:55;;;;;;;7.13;1.40;;;6.40;99.90;;;;;;5009584;28;20036;-75
2023/05/18 01:52:51;;;;;;;6.15;1.17;;;6.30;99.90;;;;;;4970062;28;20570;-74
2023/05/18 01:55:19;;;;;;;6.28;1.25;;;6.30;99.90;;;;;;5011922;28;20037;-74
2023/05/18 01:57:48;;;;;;;5.97;1.33;;;6.30;99.90;;;;;;5007087;28;21224;-75
2023/05/18 02:00:17;;;;;;;2.45;1.08;;;6.30;99.90;;;;;;4988477;28;20040;-75
2023/05/18 02:02:44;;;;;;;8.75;1.50;;;6.20;99.90;;;;;;5009898;28;20040;-74
2023/05/18 02:05:13;;;;;;;10.27;1.83;;;6.20;99.90;;;;;;4986148;28;20044;-75
2023/05/18 02:07:42;;;;;;;6.32;1.30;;;6.20;99.90;;;;;;5003540;28;20523;-74
2023/05/18 02:10:09;;;;;;;4.13;0.90;;;6.20;99.90;;;;;;5010254;28;20028;-74
2023/05/18 02:12:36;;;;;;;6.85;1.15;;;6.20;99.90;;;;;;4976965;28;20444;-74
2023/05/18 02:15:04;;;;;;;8.20;1.70;;;6.20;99.90;;;;;;4977620;28;20404;-74
2023/05/18 02:17:38;;;;;;;8.55;1.38;;;6.20;99.90;;;;;;4979243;28;20059;-75
2023/05/18 02:20:08;;;;;;;8.73;1.73;;;6.20;99.90;;;;;;4987039;28;20028;-74
2023/05/18 02:22:35;;;;;;;9.20;1.33;;;6.20;99.90;;;;;;4992197;28;20063;-75
2023/05/18 02:25:03;;;;;;;6.88;1.30;;;6.20;99.90;;;;;;5015860;28;20295;-75
2023/05/18 02:27:31;;;;;;;5.90;1.35;;;6.20;99.90;;;;;;5021515;28;20030;-75
2023/05/18 02:29:58;;;;;;;9.20;1.27;;;6.20;99.90;;;;;;4996894;28;20052;-75
2023/05/18 02:32:24;;;;;;;5.57;1.00;;;6.10;99.90;;;;;;4992437;28;20037;-75
2023/05/18 02:34:51;;;;;;;3.53;1.05;;;6.20;99.90;;;;;;5009927;28;20040;-75
2023/05/18 02:37:21;;;;;;;7.20;1.15;;;6.10;99.90;;;;;;4990508;28;20993;-75
2023/05/18 02:39:48;;;;;;;5.50;1.33;;;6.10;99.90;;;;;;5004637;28;20041;-75
2023/05/18 02:42:15;;;;;;;4.30;1.00;;;6.10;99.90;;;;;;4987864;28;20044;-75
2023/05/18 02:44:41;;;;;;;7.43;1.60;;;6.10;99.90;;;;;;5008639;28;20049;-75
2023/05/18 02:47:07;;;;;;;6.72;1.50;;;6.00;99.90;;;;;;5016864;28;20052;-75
2023/05/18 02:49:35;;;;;;;6.22;1.55;;;6.00;99.90;;;;;;5015604;28;20048;-75
2023/05/18 02:52:02;;;;;;;3.75;1.00;;;6.00;99.90;;;;;;5008622;28;20061;-75
2023/05/18 02:54:29;;;;;;;7.00;2.22;;;6.00;99.90;;;;;;4992816;28;20805;-75
2023/05/18 02:56:55;;;;;;;5.80;1.13;;;6.00;99.90;;;;;;4993752;28;20384;-75
2023/05/18 02:59:43;;;;;;;6.57;1.42;;;6.00;99.90;;;;;;4992916;28;20040;-75
2023/05/18 03:02:13;;;;;;;6.13;1.30;;;5.90;99.90;;;;;;4971860;28;20024;-75
2023/05/18 03:04:40;;;;;;;7.28;1.77;;;5.90;99.90;;;;;;5004346;28;20033;-76
2023/05/18 03:07:07;;;;;;;8.93;1.63;;;5.90;99.90;;;;;;5019801;28;20060;-75
2023/05/18 03:09:33;;;;;;;8.68;1.48;;;5.90;99.90;;;;;;5018844;28;20025;-75
2023/05/18 03:12:00;;;;;;;4.75;0.75;;;5.90;99.90;;;;;;5017940;28;20636;-75
2023/05/18 03:14:26;;;;;;;10.30;1.65;;;5.90;99.90;;;;;;5013071;28;20041;-75
2023/05/18 03:16:56;;;;;;;12.70;1.73;;;5.90;99.90;;;;;;4980139;28;20029;-75
2023/05/18 03:19:25;;;;;;;7.15;1.30;;;5.90;99.90;;;;;;5010070;28;21007;-75
2023/05/18 03:21:52;;;;;;;6.38;1.25;;;5.90;99.90;;;;;;5007805;28;20036;-75
2023/05/18 03:24:19;;;;;;;7.85;1.15;;;5.90;99.90;;;;;;4981600;28;20041;-75
2023/05/18 03:26:47;;;;;;;4.90;1.35;;;5.80;99.90;;;;;;5021197;28;20904;-75
2023/05/18 03:29:14;;;;;;;3.97;1.20;;;5.90;99.90;;;;;;5017250;28;20041;-75
2023/05/18 03:31:42;;;;;;;7.55;1.08;;;5.80;99.90;;;;;;5002926;28;20029;-75
2023/05/18 03:34:10;;;;;;;5.65;1.20;;;5.90;99.90;;;;;;5013463;28;20368;-75
2023/05/18 03:36:37;;;;;;;9.00;1.70;;;5.90;99.90;;;;;;4995028;28;20029;-75
2023/05/18 03:39:07;;;;;;;8.03;1.33;;;5.90;99.90;;;;;;4990508;28;20041;-75
2023/05/18 03:41:33;;;;;;;8.77;0.88;;;5.90;99.90;;;;;;5007970;28;20555;-75
2023/05/18 03:44:00;;;;;;;5.28;0.93;;;5.90;99.90;;;;;;5012915;28;20376;-75
2023/05/18 03:46:27;;;;;;;7.68;1.30;;;5.90;99.90;;;;;;5029170;28;20041;-76
2023/05/18 03:48:54;;;;;;;8.90;2.10;;;5.90;99.90;;;;;;5018075;28;20047;-75
2023/05/18 03:51:28;;;;;;;4.05;1.23;;;5.90;99.90;;;;;;5015324;28;20041;-75
2023/05/18 03:53:54;;;;;;;6.53;1.40;;;5.90;99.90;;;;;;4999751;28;20060;-75
2023/05/18 03:56:21;;;;;;;6.82;0.82;;;5.90;99.90;;;;;;4991423;28;20040;-75
2023/05/18 03:58:50;;;;;;;5.25;1.38;;;5.90;99.90;;;;;;4993542;28;20491;-75
2023/05/18 04:01:22;;;;;;;7.55;1.25;;;6.00;99.90;;;;;;4990827;28;20059;-75
2023/05/18 04:03:50;;;;;;;10.35;1.30;;;6.00;99.90;;;;;;5025669;28;20045;-75
2023/05/18 04:06:16;;;;;;;5.93;1.48;;;6.10;99.90;;;;;;4997440;28;20033;-75
2023/05/18 04:08:45;;;;;;;7.18;1.50;;;6.10;99.90;;;;;;5002850;28;20040;-75
2023/05/18 04:11:11;;;;;;;4.50;1.00;;;6.10;99.90;;;;;;4982022;28;20037;-75
2023/05/18 04:13:38;;;;;;;4.10;1.05;;;6.20;99.90;;;;;;5014379;28;20052;-75
2023/05/18 04:16:05;;;;;;;6.32;1.10;;;6.20;99.90;;;;;;5013442;28;22086;-75
2023/05/18 04:18:32;;;;;;;5.63;1.40;;;6.30;99.90;;;;;;4993845;28;20356;-75
2023/05/18 04:20:59;;;;;;;5.47;1.10;;;6.40;99.90;;;;;;4987449;28;20487;-76
2023/05/18 04:23:25;;;;;;;10.55;2.00;;;6.40;99.90;;;;;;5011060;28;20040;-75
2023/05/18 04:25:52;;;;;;;5.70;1.65;;;6.50;99.90;;;;;;5012388;28;20610;-75
2023/05/18 04:28:18;;;;;;;11.75;1.20;;;6.60;99.90;;;;;;4997585;28;20439;-75
2023/05/18 04:30:44;;;;;;;7.68;1.05;;;6.60;99.90;;;;;;4998513;28;20044;-75
2023/05/18 04:33:12;;;;;;;6.22;1.23;;;6.70;99.90;;;;;;5003744;28;20045;-75
2023/05/18 04:35:38;;;;;;;6.00;1.00;;;6.80;99.90;;;;;;5013671;28;20048;-75
2023/05/18 04:38:04;;;;;;;4.88;0.75;;;6.90;99.90;;;;;;5011543;28;20068;-74
2023/05/18 04:40:32;;;;;;;5.40;1.10;;;6.90;99.90;;;;;;4987897;28;20376;-75
2023/05/18 04:42:59;;;;;;;5.07;1.10;;;7.00;99.90;;;;;;5008879;28;20044;-75
2023/05/18 04:45:28;;;;;;;10.45;1.75;;;7.10;99.90;;;;;;4976252;28;20048;-75
2023/05/18 04:47:57;;;;;;;8.32;1.23;;;7.30;99.90;;;;;;4992402;28;20036;-74
2023/05/18 04:50:23;;;;;;;8.95;1.67;;;7.40;99.90;;;;;;5016192;28;20357;-75
2023/05/18 04:52:50;;;;;;;5.30;1.25;;;7.50;99.90;;;;;;5020952;28;20044;-75
2023/05/18 04:55:26;;;;;;;10.55;1.27;;;7.60;99.90;;;;;;5002284;28;20519;-75
2023/05/18 04:57:56;;;;;;;9.75;0.88;;;7.70;99.90;;;;;;4978471;28;20391;-78
2023/05/18 05:00:23;;;;;;;9.02;1.58;;;7.80;99.90;;;;;;5002519;28;20045;-73
2023/05/18 05:02:50;;;;;;;10.63;0.88;;;8.00;99.90;;;;;;4992897;28;20372;-74
2023/05/18 05:05:17;;;;;;;9.77;1.58;;;8.10;99.90;;;;;;4977263;28;20033;-73
2023/05/18 05:07:44;;;;;;;6.47;1.15;;;8.10;99.90;;;;;;4996164;28;20037;-74
2023/05/18 05:10:10;;;;;;;10.90;1.10;;;8.20;99.90;;;;;;4994390;28;20036;-74
2023/05/18 05:12:38;;;;;;;7.68;1.17;;;8.30;99.90;;;;;;5001818;28;23005;-75
2023/05/18 05:15:06;;;;;;;9.40;0.90;;;8.40;99.90;;;;;;5020626;28;20048;-75
2023/05/18 05:17:32;;;;;;;4.95;0.80;;;8.40;99.90;;;;;;4981694;28;20039;-74
2023/05/18 05:19:59;;;;;;;10.02;0.95;;;8.60;99.90;;;;;;4989898;28;20041;-75
2023/05/18 05:22:25;;;;;;;12.27;1.35;;;8.70;99.90;;;;;;5006579;28;20025;-74
2023/05/18 05:24:52;;;;;;;8.65;0.80;;;8.90;99.90;;;;;;5010263;28;20024;-75
2023/05/18 05:27:19;;;;;;;5.97;0.98;;;8.90;99.90;;;;;;4991357;28;20036;-75
2023/05/18 05:29:46;;;;;;;9.80;1.13;;;9.00;99.90;;;;;;5020459;28;20483;-75
2023/05/18 05:32:12;;;;;;;6.45;1.45;;;9.00;99.90;;;;;;5027160;28;20036;-75
2023/05/18 05:34:42;;;;;;;5.70;1.08;;;9.00;99.90;;;;;;5001343;28;20017;-75
2023/05/18 05:37:09;;;;;;;6.18;0.60;;;8.90;99.90;;;;;;5018058;28;20033;-76
2023/05/18 05:39:36;;;;;;;5.38;0.50;;;8.90;99.90;;;;;;5007156;28;20160;-79
2023/05/18 05:42:02;;;;;;;16.80;1.42;;;9.00;99.90;;;;;;5021630;28;20237;-79
2023/05/18 05:44:29;;;;;;;5.70;1.00;;;9.00;99.90;;;;;;5009426;28;20372;-79
2023/05/18 05:46:56;;;;;;;7.05;1.35;;;9.10;99.90;;;;;;5009865;28;20041;-75
2023/05/18 05:49:22;;;;;;;10.82;1.50;;;9.20;99.90;;;;;;4971550;28;20132;-75
2023/05/18 05:51:49;;;;;;;7.95;1.08;;;9.20;99.90;;;;;;5004142;28;20057;-76
2023/05/18 05:54:16;;;;;;;6.85;1.13;;;9.30;99.90;;;;;;5013986;28;20040;-76
2023/05/18 05:56:43;;;;;;;8.45;1.30;;;9.30;99.90;;;;;;5015911;28;20029;-76
2023/05/18 05:59:10;;;;;;;7.82;0.82;;;9.30;99.90;;;;;;4993105;28;20041;-75
2023/05/18 06:01:36;;;;;;;7.40;0.90;;;9.20;99.90;;;;;;5020204;28;20055;-75
2023/05/18 06:04:05;;;;;;;3.47;0.73;;;9.20;99.90;;;;;;5021633;28;20041;-75
2023/05/18 06:06:31;;;;;;;8.85;1.38;;;9.10;99.90;;;;;;4999169;28;20041;-75
2023/05/18 06:08:57;;;;;;;11.80;2.15;;;9.00;99.90;;;;;;4984122;28;21599;-75
2023/05/18 06:11:25;;;;;;;6.07;1.08;;;9.00;99.90;;;;;;5002510;28;20033;-75
2023/05/18 06:13:52;;;;;;;5.55;0.80;;;8.90;99.90;;;;;;5001640;28;20056;-74
2023/05/18 06:16:18;;;;;;;6.72;1.08;;;8.90;99.90;;;;;;5011534;28;20036;-78
2023/05/18 06:18:44;;;;;;;11.32;1.00;;;8.90;99.90;;;;;;5023355;28;20047;-77
2023/05/18 06:21:11;;;;;;;9.73;0.98;;;9.00;99.90;;;;;;4996110;28;20030;-76
2023/05/18 06:23:37;;;;;;;8.32;1.00;;;9.00;99.90;;;;;;4971896;28;21137;-76
2023/05/18 06:26:18;;;;;;;3.03;0.50;;;9.10;99.90;;;;;;5006714;28;20139;-76
2023/05/18 06:28:44;;;;;;;5.95;0.73;;;9.20;99.90;;;;;;5011348;28;20043;-76
2023/05/18 06:31:29;;;;;;;5.70;1.10;;;9.30;99.90;;;;;;4995462;28;20416;-75
2023/05/18 06:34:06;;;;;;;4.38;0.70;;;9.60;99.90;;;;;;5018463;28;20040;-76
2023/05/18 06:36:33;;;;;;;4.68;1.08;;;10.00;99.90;;;;;;5018354;28;20112;-76
2023/05/18 06:38:59;;;;;;;7.53;0.70;;;10.30;99.90;;;;;;5005501;28;20750;-75
2023/05/18 06:41:26;;;;;;;6.65;1.05;;;10.60;99.90;;;;;;4989487;28;20128;-75
2023/05/18 06:43:52;;;;;;;4.85;0.70;;;10.90;99.90;;;;;;5009630;28;20036;-75
2023/05/18 06:46:28;;;;;;;7.05;1.42;;;11.20;99.90;;;;;;4996713;28;20044;-77
2023/05/18 06:49:00;;;;;;;6.05;0.75;;;11.30;99.90;;;;;;5022635;28;20048;-77
2023/05/18 06:51:27;;;;;;;8.07;0.88;;;11.40;99.90;;;;;;5010891;28;20041;-75
2023/05/18 06:53:55;;;;;;;8.50;0.95;;;11.50;99.90;;;;;;5023150;28;20037;-76
2023/05/18 06:56:22;;;;;;;5.40;0.90;;;11.60;99.90;;;;;;5005529;28;20036;-76
2023/05/18 06:58:48;;;;;;;7.60;1.30;;;11.70;99.90;;;;;;5014933;28;20036;-76
2023/05/18 07:01:16;;;;;;;8.07;0.95;;;11.90;99.90;;;;;;5006218;28;20440;-75
2023/05/18 07:03:43;;;;;;;7.90;1.10;;;12.00;99.90;;;;;;5011943;28;20036;-75
2023/05/18 07:06:09;;;;;;;7.63;1.17;;;12.00;99.90;;;;;;5012680;28;20634;-77
2023/05/18 07:08:36;;;;;;;6.22;0.90;;;12.20;99.90;;;;;;5012111;28;20048;-76
2023/05/18 07:11:03;;;;;;;13.38;1.48;;;12.30;99.90;;;;;;5004529;28;20033;-76
2023/05/18 07:13:29;;;;;;;9.23;1.38;;;12.40;99.90;;;;;;5015434;28;20041;-80
2023/05/18 07:15:56;;;;;;;10.40;2.60;;;12.30;99.90;;;;;;5023794;28;20033;-81
2023/05/18 07:18:22;;;;;;;8.65;1.77;;;12.30;99.90;;;;;;5002084;28;20045;-77
2023/05/18 07:20:49;;;;;;;9.85;1.27;;;12.40;99.90;;;;;;5006017;28;20037;-76
2023/05/18 07:23:15;;;;;;;6.53;1.08;;;12.50;99.90;;;;;;5014088;28;20028;-75
2023/05/18 07:25:41;;;;;;;5.70;1.00;;;12.60;99.90;;;;;;5014752;28;20401;-75
2023/05/18 07:28:08;;;;;;;10.80;1.73;;;12.80;99.90;;;;;;5013473;28;21236;-74
2023/05/18 07:30:34;;;;;;;6.05;1.10;;;13.00;99.90;;;;;;5005471;28;20037;-73
2023/05/18 07:33:00;;;;;;;12.60;1.40;;;13.20;99.90;;;;;;4999874;28;20032;-74
2023/05/18 07:35:27;;;;;;;6.85;1.02;;;13.30;99.00;;;;;;4989506;28;20045;-74
2023/05/18 07:37:53;;;;;;;6.28;0.90;;;13.40;98.90;;;;;;5024252;28;20044;-73
2023/05/18 07:40:20;;;;;;;7.40;0.80;;;13.50;98.90;;;;;;5004536;28;21611;-72
2023/05/18 07:42:46;;;;;;;7.30;1.40;;;13.50;97.90;;;;;;4990451;28;20542;-72
2023/05/18 07:45:12;;;;;;;7.72;1.08;;;13.50;97.40;;;;;;5005502;28;20041;-73
2023/05/18 07:47:39;;;;;;;8.85;1.42;;;13.50;96.90;;;;;;4996077;28;20037;-72
2023/05/18 07:50:06;;;;;;;6.95;1.05;;;13.30;96.80;;;;;;5006194;28;20067;-72
2023/05/18 07:52:32;;;;;;;7.85;1.00;;;13.20;96.50;;;;;;5011987;28;22503;-73
2023/05/18 07:55:00;;;;;;;7.00;1.05;;;13.10;96.40;;;;;;5021650;28;20434;-73
2023/05/18 07:57:26;;;;;;;8.45;1.65;;;13.10;96.70;;;;;;5006660;28;20380;-74
2023/05/18 07:59:53;;;;;;;7.00;0.60;;;13.20;96.20;;;;;;5011148;28;20072;-74
2023/05/18 08:02:19;;;;;;;7.32;1.10;;;13.40;96.50;;;;;;4990003;28;20029;-74
2023/05/18 08:04:46;;;;;;;7.85;1.23;;;13.80;96.30;;;;;;5011564;28;20506;-74
2023/05/18 08:07:13;;;;;;;6.82;0.90;;;13.90;95.00;;;;;;4995483;28;20033;-73
2023/05/18 08:09:40;;;;;;;4.30;0.70;;;14.00;95.40;;;;;;4991154;28;22870;-73
2023/05/18 08:12:07;;;;;;;9.55;1.98;;;14.30;95.50;;;;;;5007680;28;20043;-73
2023/05/18 08:14:33;;;;;;;3.50;0.70;;;14.50;94.60;;;;;;5021529;28;20325;-73
2023/05/18 08:16:59;;;;;;;5.55;0.80;;;14.60;94.70;;;;;;5004420;28;20029;-74
2023/05/18 08:19:26;;;;;;;5.38;1.05;;;14.70;93.90;;;;;;4999523;28;21422;-74
2023/05/18 08:21:52;;;;;;;9.07;1.25;;;14.90;94.10;;;;;;5006583;28;20395;-73
2023/05/18 08:24:18;;;;;;;9.05;0.95;;;15.10;93.40;;;;;;4991902;28;20033;-74
2023/05/18 08:26:44;;;;;;;8.20;1.33;;;15.30;92.90;;;;;;5011750;28;20029;-73
2023/05/18 08:29:11;;;;;;;6.93;1.02;;;15.30;91.60;;;;;;5007979;28;20043;-72
2023/05/18 08:31:39;;;;;;;7.65;1.13;;;15.00;91.40;;;;;;5008476;28;20279;-72
2023/05/18 08:34:06;;;;;;;6.75;1.02;;;14.80;91.30;;;;;;5015559;28;20499;-74
2023/05/18 08:36:36;;;;;;;6.07;1.17;;;14.70;91.90;;;;;;5020922;28;20025;-74
2023/05/18 08:39:04;;;;;;;4.30;0.57;;;14.80;92.20;;;;;;5000676;28;20044;-73
2023/05/18 08:41:43;;;;;;;7.53;1.10;;;15.00;92.30;;;;;;5010800;28;20365;-74
2023/05/18 08:44:21;;;;;;;9.13;1.10;;;15.10;92.10;;;;;;4997713;28;20369;-74
2023/05/18 08:46:50;;;;;;;10.30;1.10;;;15.20;92.00;;;;;;5012942;28;20668;-73
2023/05/18 08:49:18;;;;;;;6.22;0.85;;;15.30;92.00;;;;;;5009082;28;21427;-72
2023/05/18 08:51:56;;;;;;;6.30;0.93;;;15.30;91.80;;;;;;5006755;28;20365;-73
2023/05/18 08:54:23;;;;;;;6.13;1.33;;;15.40;91.60;;;;;;5013999;28;20036;-73
2023/05/18 08:56:52;;;;;;;5.15;1.05;;;15.50;91.40;;;;;;4996745;28;20048;-72
2023/05/18 08:59:23;;;;;;;5.95;1.13;;;15.60;91.30;;;;;;5014503;28;20647;-73
2023/05/18 09:01:50;;;;;;;8.90;1.30;;;15.80;91.20;;;;;;4992207;28;20037;-72
2023/05/18 09:04:18;;;;;;;7.18;1.08;;;15.90;90.60;;;;;;5022075;28;20033;-74
2023/05/18 09:06:47;;;;;;;5.20;1.20;;;15.80;89.80;;;;;;4994156;28;20060;-73
2023/05/18 09:09:14;;;;;;;7.30;1.27;;;15.60;89.80;;;;;;5006939;28;20047;-72
2023/05/18 09:11:40;;;;;;;9.60;3.20;;;15.60;89.90;;;;;;5005336;28;20033;-78
2023/05/18 09:14:07;;;;;;;9.40;2.70;;;15.60;90.00;;;;;;4999463;28;20048;-71
2023/05/18 09:16:33;;;;;;;8.88;2.72;;;15.70;90.10;;;;;;5003011;28;20443;-74
2023/05/18 09:18:59;;;;;;;8.80;1.60;;;15.70;89.00;;;;;;5016981;28;20048;-73
2023/05/18 09:21:26;;;;;;;8.38;1.20;;;15.80;89.30;;;;;;4992164;28;20048;-73
2023/05/18 09:23:53;;;;;;;6.65;1.45;;;15.80;89.00;;;;;;5011613;28;20048;-73
2023/05/18 09:26:20;;;;;;;10.82;1.85;;;15.80;88.50;;;;;;5009250;28;21352;-73
2023/05/18 09:28:51;;;;;;;5.88;1.20;;;15.70;87.50;;;;;;4992650;28;20416;-73
2023/05/18 09:31:20;;;;;;;10.50;1.25;;;15.70;87.40;;;;;;5005114;28;21447;-72
2023/05/18 09:33:47;;;;;;;6.18;1.30;;;15.90;87.80;;;;;;4995724;28;20025;-73
2023/05/18 09:36:14;;;;;;;5.85;1.70;;;16.10;87.10;;;;;;5021504;28;20495;-74
2023/05/18 09:38:44;;;;;;;7.60;1.48;;;16.30;85.00;;;;;;5004824;28;20033;-74
2023/05/18 09:41:15;;;;;;;7.70;1.25;;;16.50;85.40;;;;;;5008426;28;20919;-74
2023/05/18 09:43:43;;;;;;;5.38;1.17;;;16.60;83.30;;;;;;5009383;28;20054;-74
2023/05/18 09:46:11;;;;;;;7.20;1.27;;;16.40;83.50;;;;;;5009300;28;20404;-74
2023/05/18 09:48:52;;;;;;;5.97;0.90;;;16.50;84.00;;;;;;4993820;28;20037;-74
2023/05/18 09:51:23;;;;;;;6.10;1.30;;;16.60;84.20;;;;;;5004296;28;20045;-74
2023/05/18 09:53:54;;;;;;;7.07;1.20;;;16.60;84.10;;;;;;5021419;28;20029;-74
2023/05/18 09:56:23;;;;;;;6.47;1.15;;;16.60;82.90;;;;;;5025962;28;20369;-74
2023/05/18 09:58:49;;;;;;;4.63;0.95;;;16.50;82.80;;;;;;5002880;28;20352;-74
2023/05/18 10:01:15;;;;;;;5.13;0.90;;;16.40;83.30;;;;;;5012364;28;20459;-74
2023/05/18 10:03:44;;;;;;;3.80;0.80;;;16.50;83.50;;;;;;5009745;28;20068;-74
2023/05/18 10:06:12;;;;;;;7.65;1.00;;;16.50;83.50;;;;;;5008188;28;20492;-72
2023/05/18 10:08:39;;;;;;;7.53;1.20;;;16.60;82.20;;;;;;5009041;28;21893;-73
2023/05/18 10:11:06;;;;;;;8.73;1.02;;;16.50;82.40;;;;;;5002598;28;20045;-72
2023/05/18 10:13:33;;;;;;;4.95;1.08;;;16.50;81.80;;;;;;4991878;28;20044;-73
2023/05/18 10:16:02;;;;;;;5.13;1.05;;;16.20;81.60;;;;;;5012263;28;20487;-73
2023/05/18 10:18:34;;;;;;;8.15;1.58;;;16.30;82.50;;;;;;5018475;28;20033;-73
2023/05/18 10:21:03;;;;;;;6.87;1.50;;;16.40;81.50;;;;;;5011614;28;22349;-73
2023/05/18 10:23:34;;;;;;;6.50;0.95;;;16.40;81.80;;;;;;5015994;28;20037;-72
2023/05/18 10:26:05;;;;;;;6.63;1.00;;;16.30;81.30;;;;;;5011427;28;20048;-72
2023/05/18 10:28:46;;;;;;;8.40;1.33;;;16.20;81.00;;;;;;5010087;28;20049;-74
2023/05/18 10:31:15;;;;;;;7.00;1.30;;;16.20;80.40;;;;;;5002331;28;20040;-72
2023/05/18 10:33:43;;;;;;;9.65;2.88;;;16.10;80.10;;;;;;5006563;28;20029;-73
2023/05/18 10:36:11;;;;;;;8.77;1.23;;;16.00;79.40;;;;;;5010348;28;20048;-73
2023/05/18 10:38:44;;;;;;;6.80;1.35;;;16.10;80.20;;;;;;5014666;28;20036;-72
2023/05/18 10:41:12;;;;;;;5.47;0.98;;;16.20;79.80;;;;;;5006624;28;20056;-73
2023/05/18 10:43:40;;;;;;;8.40;1.35;;;16.40;80.70;;;;;;5017411;28;20901;-73
2023/05/18 10:46:08;;;;;;;10.65;1.23;;;16.70;79.40;;;;;;5010446;28;20523;-72
2023/05/18 10:48:38;;;;;;;7.47;1.05;;;16.80;78.90;;;;;;5022023;28;20485;-73
2023/05/18 10:51:06;;;;;;;10.10;1.70;;;17.10;78.40;;;;;;5014122;28;20211;-72
2023/05/18 10:53:33;;;;;;;5.00;1.10;;;17.30;78.10;;;;;;5009827;28;20044;-72
2023/05/18 10:56:00;;;;;;;6.38;1.50;;;17.60;77.70;;;;;;5018573;28;20040;-73
2023/05/18 10:58:28;;;;;;;4.75;1.05;;;17.80;77.20;;;;;;5010261;28;20377;-73
2023/05/18 11:00:56;;;;;;;8.50;1.00;;;18.10;76.60;;;;;;5006386;28;20040;-73
2023/05/18 11:03:25;;;;;;;5.45;1.40;;;18.40;75.80;;;;;;5016444;28;20029;-74
2023/05/18 11:06:11;;;;;;;10.27;1.20;;;18.70;75.90;;;;;;4990057;28;20134;-73
2023/05/18 11:08:47;;;;;;;5.03;1.10;;;19.10;74.10;;;;;;5005966;28;20044;-73
2023/05/18 11:11:14;;;;;;;6.90;1.10;;;19.30;73.60;;;;;;4999526;28;20040;-74
2023/05/18 11:13:47;;;;;;;5.82;1.60;;;19.40;72.80;;;;;;5008791;28;20500;-74
2023/05/18 11:16:14;;;;;;;6.13;1.40;;;19.50;72.10;;;;;;5009491;28;20363;-72
2023/05/18 11:18:51;;;;;;;6.30;1.25;;;19.50;71.70;;;;;;5009670;28;20503;-73
2023/05/18 11:21:20;;;;;;;5.22;1.40;;;19.70;72.00;;;;;;5010615;28;20037;-75
2023/05/18 11:24:41;;;;;;;8.82;1.60;;;19.80;69.80;;;;;;5019178;28;20073;-73
2023/05/18 11:27:15;;;;;;;7.00;1.00;;;19.70;69.50;;;;;;4960587;28;21642;-74
2023/05/18 11:29:47;;;;;;;8.25;1.30;;;19.70;69.00;;;;;;4999335;28;20539;-73
2023/05/18 11:32:28;;;;;;;4.75;1.05;;;19.90;69.50;;;;;;5022928;28;20060;-74
2023/05/18 11:34:55;;;;;;;7.60;3.77;;;20.30;69.10;;;;;;5011466;28;20052;-73
2023/05/18 11:37:43;;;;;;;5.25;1.30;;;20.70;68.20;;;;;;5015439;28;20440;-73
2023/05/18 11:40:15;;;;;;;6.55;1.10;;;20.90;65.50;;;;;;4989637;28;20028;-73
2023/05/18 11:42:41;;;;;;;7.68;1.63;;;21.00;66.10;;;;;;5021442;28;20056;-74
2023/05/18 11:45:11;;;;;;;9.90;1.58;;;21.10;64.90;;;;;;5022127;28;20500;-74
2023/05/18 11:47:39;;;;;;;5.13;1.40;;;21.00;65.40;;;;;;5004439;28;20387;-74
2023/05/18 11:50:07;;;;;;;7.45;1.52;;;21.10;65.60;;;;;;5010178;28;20427;-73
2023/05/18 11:52:47;;;;;;;4.70;1.30;;;21.30;65.00;;;;;;5011105;28;22877;-74
2023/05/18 11:55:15;;;;;;;8.93;1.63;;;21.40;64.70;;;;;;5009195;28;20503;-74
2023/05/18 11:57:44;;;;;;;4.63;1.25;;;21.30;64.60;;;;;;5009963;28;20451;-74
2023/05/18 12:00:11;;;;;;;6.13;1.75;;;21.60;64.40;;;;;;5002164;28;20041;-73
2023/05/18 12:02:45;;;;;;;4.05;1.15;;;21.80;63.40;;;;;;5012807;28;20040;-73
2023/05/18 12:05:12;;;;;;;9.32;1.52;;;22.10;63.10;;;;;;5023271;28;20036;-73
2023/05/18 12:07:39;;;;;;;4.63;1.10;;;22.40;62.00;;;;;;5023638;28;20075;-74
2023/05/18 12:10:13;;;;;;;5.22;1.50;;;22.60;61.40;;;;;;5010272;28;20051;-73
2023/05/18 12:12:40;;;;;;;6.30;1.35;;;22.70;61.80;;;;;;5012141;28;20510;-74
2023/05/18 12:15:08;;;;;;;6.22;1.40;;;22.90;58.80;;;;;;5011507;28;20475;-74
2023/05/18 12:17:46;;;;;;;5.97;1.60;;;23.00;58.80;;;;;;5009021;28;20047;-74
2023/05/18 12:20:14;;;;;;;5.07;1.67;;;23.30;58.90;;;;;;5003567;28;21593;-73
2023/05/18 12:22:42;;;;;;;5.90;1.42;;;23.60;58.20;;;;;;5010289;28;20551;-73
2023/05/18 12:25:09;;;;;;;5.53;1.13;;;23.90;57.80;;;;;;5022254;28;20032;-74
2023/05/18 12:27:44;;;;;;;5.05;1.25;;;24.40;56.60;;;;;;5020766;28;20359;-74
2023/05/18 12:30:12;;;;;;;6.25;1.10;;;24.90;55.70;;;;;;5019516;28;20025;-74
2023/05/18 12:32:43;;;;;;;5.47;1.42;;;25.50;55.70;;;;;;5009087;28;20048;-74
2023/05/18 12:35:09;;;;;;;7.00;1.25;;;25.80;54.70;;;;;;5008627;28;20052;-75
2023/05/18 12:37:45;;;;;;;6.75;1.73;;;26.00;53.50;;;;;;5010126;28;20044;-75
2023/05/18 12:40:13;;;;;;;5.93;1.30;;;26.00;53.20;;;;;;5004002;28;20471;-73
2023/05/18 12:42:50;;;;;;;4.90;1.20;;;26.00;52.40;;;;;;5011991;28;20512;-73
2023/05/18 12:45:16;;;;;;;7.30;1.27;;;25.60;51.20;;;;;;5021189;28;20033;-74
2023/05/18 12:47:42;;;;;;;5.18;1.10;;;24.70;51.40;;;;;;5019839;28;20042;-74
2023/05/18 12:50:10;;;;;;;4.60;1.10;;;24.20;52.20;;;;;;5008032;28;20033;-73
2023/05/18 12:52:36;;;;;;;5.55;1.30;;;23.80;53.00;;;;;;5004477;28;20036;-73
2023/05/18 12:55:03;;;;;;;5.47;1.20;;;23.30;53.60;;;;;;5012133;28;20025;-74
2023/05/18 12:57:29;;;;;;;9.40;1.77;;;23.00;54.00;;;;;;5009501;28;20037;-75
2023/05/18 12:59:56;;;;;;;6.50;1.50;;;22.60;54.00;;;;;;5003496;28;20037;-73